sensor_id;sensor_type;location;lat;lon;timestamp;pressure;altitude;pressure_sealevel;temperature;humidity
12791;BME280;6459;42.678;23.310;2022-08-21T00:01:52;53989.59;;;-144.00;75.17
12791;BME280;6459;42.678;23.310;2022-08-21T00:04:20;53965.69;;;-144.00;75.89
12791;BME280;6459;42.678;23.310;2022-08-21T00:06:56;53967.69;;;-144.00;76.21
12791;BME280;6459;42.678;23.310;2022-08-21T00:09:25;53943.78;;;-144.00;76.33
12791;BME280;6459;42.678;23.310;2022-08-21T00:11:55;53993.59;;;-144.00;76.76
12791;BME280;6459;42.678;23.310;2022-08-21T00:14:23;53973.66;;;-144.00;77.72
12791;BME280;6459;42.678;23.310;2022-08-21T00:16:51;53989.59;;;-144.00;77.59
12791;BME280;6459;42.678;23.310;2022-08-21T00:19:26;53977.66;;;-144.00;77.05
12791;BME280;6459;42.678;23.310;2022-08-21T00:21:57;53993.59;;;-144.00;77.09
12791;BME280;6459;42.678;23.310;2022-08-21T00:24:26;53955.72;;;-144.00;76.53
12791;BME280;6459;42.678;23.310;2022-08-21T00:26:57;53999.56;;;-144.00;75.68
12791;BME280;6459;42.678;23.310;2022-08-21T00:29:25;54005.53;;;-144.00;75.13
12791;BME280;6459;42.678;23.310;2022-08-21T00:31:54;54007.53;;;-144.00;74.74
12791;BME280;6459;42.678;23.310;2022-08-21T00:34:23;53969.69;;;-144.00;74.33
12791;BME280;6459;42.678;23.310;2022-08-21T00:36:51;53985.63;;;-144.00;74.17
12791;BME280;6459;42.678;23.310;2022-08-21T00:39:20;54023.47;;;-144.00;73.89
12791;BME280;6459;42.678;23.310;2022-08-21T00:41:48;54011.50;;;-144.00;74.09
12791;BME280;6459;42.678;23.310;2022-08-21T00:44:18;53953.75;;;-144.00;73.78
12791;BME280;6459;42.678;23.310;2022-08-21T00:46:46;54021.47;;;-144.00;74.35
12791;BME280;6459;42.678;23.310;2022-08-21T00:49:15;54031.44;;;-144.00;75.27
12791;BME280;6459;42.678;23.310;2022-08-21T00:51:48;53999.56;;;-144.00;75.75
12791;BME280;6459;42.678;23.310;2022-08-21T00:54:17;54021.47;;;-144.00;76.29
12791;BME280;6459;42.678;23.310;2022-08-21T00:56:50;53977.66;;;-144.00;76.24
12791;BME280;6459;42.678;23.310;2022-08-21T00:59:23;53967.69;;;-144.00;76.05
12791;BME280;6459;42.678;23.310;2022-08-21T01:01:53;54009.53;;;-144.00;75.82
12791;BME280;6459;42.678;23.310;2022-08-21T01:04:22;53973.66;;;-144.00;75.42
12791;BME280;6459;42.678;23.310;2022-08-21T01:06:51;54013.50;;;-144.00;75.17
12791;BME280;6459;42.678;23.310;2022-08-21T01:09:21;54013.50;;;-144.00;75.36
12791;BME280;6459;42.678;23.310;2022-08-21T01:11:50;54013.50;;;-144.00;76.00
12791;BME280;6459;42.678;23.310;2022-08-21T01:14:19;54005.53;;;-144.00;76.50
12791;BME280;6459;42.678;23.310;2022-08-21T01:16:51;54001.56;;;-144.00;76.21
12791;BME280;6459;42.678;23.310;2022-08-21T01:19:21;53993.59;;;-144.00;75.90
12791;BME280;6459;42.678;23.310;2022-08-21T01:21:51;54025.47;;;-144.00;76.23
12791;BME280;6459;42.678;23.310;2022-08-21T01:24:20;54003.53;;;-144.00;76.85
12791;BME280;6459;42.678;23.310;2022-08-21T01:26:50;54009.53;;;-144.00;76.98
12791;BME280;6459;42.678;23.310;2022-08-21T01:29:36;53995.56;;;-144.00;77.88
12791;BME280;6459;42.678;23.310;2022-08-21T01:32:09;54017.50;;;-144.00;78.41
12791;BME280;6459;42.678;23.310;2022-08-21T01:34:42;54011.50;;;-144.00;78.29
12791;BME280;6459;42.678;23.310;2022-08-21T01:37:19;54005.53;;;-144.00;77.76
12791;BME280;6459;42.678;23.310;2022-08-21T01:39:48;54033.44;;;-144.00;78.16
12791;BME280;6459;42.678;23.310;2022-08-21T01:42:17;53993.59;;;-144.00;78.34
12791;BME280;6459;42.678;23.310;2022-08-21T01:44:45;54017.50;;;-144.00;78.50
12791;BME280;6459;42.678;23.310;2022-08-21T01:47:15;54013.50;;;-144.00;78.15
12791;BME280;6459;42.678;23.310;2022-08-21T01:49:44;54017.50;;;-144.00;78.03
12791;BME280;6459;42.678;23.310;2022-08-21T01:52:13;53997.56;;;-144.00;77.54
12791;BME280;6459;42.678;23.310;2022-08-21T01:54:43;54025.47;;;-144.00;77.44
12791;BME280;6459;42.678;23.310;2022-08-21T01:57:20;54007.53;;;-144.00;77.40
12791;BME280;6459;42.678;23.310;2022-08-21T01:59:52;54051.34;;;-144.00;77.08
12791;BME280;6459;42.678;23.310;2022-08-21T02:02:21;53999.56;;;-144.00;76.39
12791;BME280;6459;42.678;23.310;2022-08-21T02:04:49;53995.56;;;-144.00;75.51
12791;BME280;6459;42.678;23.310;2022-08-21T02:07:18;54005.53;;;-144.00;74.67
12791;BME280;6459;42.678;23.310;2022-08-21T02:09:48;53995.56;;;-144.00;74.61
12791;BME280;6459;42.678;23.310;2022-08-21T02:12:17;53993.59;;;-144.00;74.79
12791;BME280;6459;42.678;23.310;2022-08-21T02:14:45;54027.44;;;-144.00;74.75
12791;BME280;6459;42.678;23.310;2022-08-21T02:17:14;54021.47;;;-144.00;74.81
12791;BME280;6459;42.678;23.310;2022-08-21T02:19:44;53997.56;;;-144.00;74.69
12791;BME280;6459;42.678;23.310;2022-08-21T02:22:15;54005.53;;;-144.00;74.74
12791;BME280;6459;42.678;23.310;2022-08-21T02:24:44;53999.56;;;-144.00;74.16
12791;BME280;6459;42.678;23.310;2022-08-21T02:27:23;53989.59;;;-144.00;74.20
12791;BME280;6459;42.678;23.310;2022-08-21T02:29:54;54015.50;;;-144.00;74.26
12791;BME280;6459;42.678;23.310;2022-08-21T02:32:23;54013.50;;;-144.00;74.53
12791;BME280;6459;42.678;23.310;2022-08-21T02:34:53;54015.50;;;-144.00;74.67
12791;BME280;6459;42.678;23.310;2022-08-21T02:37:22;54031.44;;;-144.00;74.64
12791;BME280;6459;42.678;23.310;2022-08-21T02:39:51;53993.59;;;-144.00;75.63
12791;BME280;6459;42.678;23.310;2022-08-21T02:42:19;54001.56;;;-144.00;75.65
12791;BME280;6459;42.678;23.310;2022-08-21T02:44:49;53961.72;;;-144.00;75.90
12791;BME280;6459;42.678;23.310;2022-08-21T02:47:18;53997.56;;;-144.00;75.84
12791;BME280;6459;42.678;23.310;2022-08-21T02:49:46;53985.63;;;-144.00;75.82
12791;BME280;6459;42.678;23.310;2022-08-21T02:52:14;54001.56;;;-144.00;75.85
12791;BME280;6459;42.678;23.310;2022-08-21T02:54:42;53997.56;;;-144.00;75.99
12791;BME280;6459;42.678;23.310;2022-08-21T02:57:11;54013.50;;;-144.00;76.07
12791;BME280;6459;42.678;23.310;2022-08-21T02:59:40;53987.59;;;-144.00;76.33
12791;BME280;6459;42.678;23.310;2022-08-21T03:02:10;53991.59;;;-144.00;76.53
12791;BME280;6459;42.678;23.310;2022-08-21T03:04:38;54017.50;;;-144.00;76.61
12791;BME280;6459;42.678;23.310;2022-08-21T03:07:12;53993.59;;;-144.00;77.46
12791;BME280;6459;42.678;23.310;2022-08-21T03:09:40;53993.59;;;-144.00;77.79
12791;BME280;6459;42.678;23.310;2022-08-21T03:12:21;54013.50;;;-144.00;77.77
12791;BME280;6459;42.678;23.310;2022-08-21T03:14:49;53997.56;;;-144.00;77.65
12791;BME280;6459;42.678;23.310;2022-08-21T03:17:19;54013.50;;;-144.00;77.26
12791;BME280;6459;42.678;23.310;2022-08-21T03:19:56;54011.50;;;-144.00;76.85
12791;BME280;6459;42.678;23.310;2022-08-21T03:22:25;54007.53;;;-144.00;76.41
12791;BME280;6459;42.678;23.310;2022-08-21T03:24:55;54011.50;;;-144.00;76.59
12791;BME280;6459;42.678;23.310;2022-08-21T03:27:24;54011.50;;;-144.00;76.44
12791;BME280;6459;42.678;23.310;2022-08-21T03:29:55;53999.56;;;-144.00;76.80
12791;BME280;6459;42.678;23.310;2022-08-21T03:32:25;53991.59;;;-144.00;76.88
12791;BME280;6459;42.678;23.310;2022-08-21T03:34:53;54017.50;;;-144.00;77.26
12791;BME280;6459;42.678;23.310;2022-08-21T03:37:21;53997.56;;;-144.00;76.91
12791;BME280;6459;42.678;23.310;2022-08-21T03:39:51;54019.47;;;-144.00;76.82
12791;BME280;6459;42.678;23.310;2022-08-21T03:42:20;54013.50;;;-144.00;76.45
12791;BME280;6459;42.678;23.310;2022-08-21T03:44:48;53989.59;;;-144.00;76.81
12791;BME280;6459;42.678;23.310;2022-08-21T03:47:16;53989.59;;;-144.00;76.69
12791;BME280;6459;42.678;23.310;2022-08-21T03:49:46;53999.56;;;-144.00;77.00
12791;BME280;6459;42.678;23.310;2022-08-21T03:52:17;54021.47;;;-144.00;77.00
12791;BME280;6459;42.678;23.310;2022-08-21T03:54:45;54051.34;;;-144.00;77.30
12791;BME280;6459;42.678;23.310;2022-08-21T03:57:14;54045.38;;;-144.00;77.47
12791;BME280;6459;42.678;23.310;2022-08-21T03:59:43;54019.47;;;-144.00;77.84
12791;BME280;6459;42.678;23.310;2022-08-21T04:02:14;54049.38;;;-144.00;78.23
12791;BME280;6459;42.678;23.310;2022-08-21T04:04:45;54025.47;;;-144.00;78.54
12791;BME280;6459;42.678;23.310;2022-08-21T04:07:13;54049.38;;;-144.00;78.61
12791;BME280;6459;42.678;23.310;2022-08-21T04:09:41;54037.41;;;-144.00;78.89
12791;BME280;6459;42.678;23.310;2022-08-21T04:12:10;54025.47;;;-144.00;78.90
12791;BME280;6459;42.678;23.310;2022-08-21T04:14:38;54033.44;;;-144.00;79.18
12791;BME280;6459;42.678;23.310;2022-08-21T04:17:06;54021.47;;;-144.00;79.27
12791;BME280;6459;42.678;23.310;2022-08-21T04:19:34;54017.50;;;-144.00;79.33
12791;BME280;6459;42.678;23.310;2022-08-21T04:22:04;54045.38;;;-144.00;79.06
12791;BME280;6459;42.678;23.310;2022-08-21T04:24:32;54045.38;;;-144.00;78.99
12791;BME280;6459;42.678;23.310;2022-08-21T04:27:01;54055.34;;;-144.00;78.55
12791;BME280;6459;42.678;23.310;2022-08-21T04:29:29;54083.25;;;-144.00;78.68
12791;BME280;6459;42.678;23.310;2022-08-21T04:31:57;53999.56;;;-144.00;78.51
12791;BME280;6459;42.678;23.310;2022-08-21T04:34:26;54033.44;;;-144.00;78.60
12791;BME280;6459;42.678;23.310;2022-08-21T04:36:54;54031.44;;;-144.00;79.23
12791;BME280;6459;42.678;23.310;2022-08-21T04:39:23;54045.38;;;-144.00;79.11
12791;BME280;6459;42.678;23.310;2022-08-21T04:41:55;54049.38;;;-144.00;78.82
12791;BME280;6459;42.678;23.310;2022-08-21T04:44:23;54041.41;;;-144.00;79.06
12791;BME280;6459;42.678;23.310;2022-08-21T04:46:52;54027.44;;;-144.00;78.75
12791;BME280;6459;42.678;23.310;2022-08-21T04:49:20;54021.47;;;-144.00;78.31
12791;BME280;6459;42.678;23.310;2022-08-21T04:51:49;54033.44;;;-144.00;77.41
12791;BME280;6459;42.678;23.310;2022-08-21T04:54:20;53989.59;;;-144.00;77.14
12791;BME280;6459;42.678;23.310;2022-08-21T04:56:55;53985.63;;;-144.00;75.14
12791;BME280;6459;42.678;23.310;2022-08-21T04:59:27;53969.69;;;-144.00;72.97
12791;BME280;6459;42.678;23.310;2022-08-21T05:01:56;53911.91;;;-144.00;71.23
12791;BME280;6459;42.678;23.310;2022-08-21T05:04:26;53890.00;;;-144.00;67.55
12791;BME280;6459;42.678;23.310;2022-08-21T05:06:58;53880.03;;;-144.00;64.87
12791;BME280;6459;42.678;23.310;2022-08-21T05:09:28;53907.91;;;-144.00;63.76
12791;BME280;6459;42.678;23.310;2022-08-21T05:12:00;53884.00;;;-144.00;64.19
12791;BME280;6459;42.678;23.310;2022-08-21T05:14:29;53919.88;;;-144.00;65.64
12791;BME280;6459;42.678;23.310;2022-08-21T05:16:57;53949.75;;;-144.00;65.92
12791;BME280;6459;42.678;23.310;2022-08-21T05:19:25;53949.75;;;-144.00;66.17
12791;BME280;6459;42.678;23.310;2022-08-21T05:21:54;53941.78;;;-144.00;67.66
12791;BME280;6459;42.678;23.310;2022-08-21T05:24:22;53953.75;;;-144.00;68.39
12791;BME280;6459;42.678;23.310;2022-08-21T05:26:51;53917.88;;;-144.00;67.84
12791;BME280;6459;42.678;23.310;2022-08-21T05:29:21;53949.75;;;-144.00;67.19
12791;BME280;6459;42.678;23.310;2022-08-21T05:31:50;53955.72;;;-144.00;68.04
12791;BME280;6459;42.678;23.310;2022-08-21T05:34:20;53937.81;;;-144.00;67.23
12791;BME280;6459;42.678;23.310;2022-08-21T05:37:04;53973.66;;;-144.00;67.69
12791;BME280;6459;42.678;23.310;2022-08-21T05:39:33;53947.75;;;-144.00;68.02
12791;BME280;6459;42.678;23.310;2022-08-21T05:42:21;53961.72;;;-144.00;68.17
12791;BME280;6459;42.678;23.310;2022-08-21T05:44:55;53931.81;;;-144.00;66.87
12791;BME280;6459;42.678;23.310;2022-08-21T05:47:33;53933.81;;;-144.00;65.48
12791;BME280;6459;42.678;23.310;2022-08-21T05:50:02;53901.94;;;-144.00;65.08
12791;BME280;6459;42.678;23.310;2022-08-21T05:52:32;53945.78;;;-144.00;65.65
12791;BME280;6459;42.678;23.310;2022-08-21T05:55:00;53951.75;;;-144.00;65.35
12791;BME280;6459;42.678;23.310;2022-08-21T05:57:29;53937.81;;;-144.00;65.09
12791;BME280;6459;42.678;23.310;2022-08-21T05:59:58;53927.84;;;-144.00;65.33
12791;BME280;6459;42.678;23.310;2022-08-21T06:02:26;53921.88;;;-144.00;65.28
12791;BME280;6459;42.678;23.310;2022-08-21T06:04:56;53953.75;;;-144.00;65.46
12791;BME280;6459;42.678;23.310;2022-08-21T06:07:24;53929.84;;;-144.00;65.65
12791;BME280;6459;42.678;23.310;2022-08-21T06:09:52;53959.72;;;-144.00;66.30
12791;BME280;6459;42.678;23.310;2022-08-21T06:12:21;53961.72;;;-144.00;66.44
12791;BME280;6459;42.678;23.310;2022-08-21T06:14:49;53937.81;;;-144.00;65.60
12791;BME280;6459;42.678;23.310;2022-08-21T06:17:20;53963.69;;;-144.00;65.50
12791;BME280;6459;42.678;23.310;2022-08-21T06:19:50;53949.75;;;-144.00;66.04
12791;BME280;6459;42.678;23.310;2022-08-21T06:22:19;53949.75;;;-144.00;66.09
12791;BME280;6459;42.678;23.310;2022-08-21T06:24:48;53903.94;;;-144.00;66.21
12791;BME280;6459;42.678;23.310;2022-08-21T06:27:16;53935.81;;;-144.00;65.58
12791;BME280;6459;42.678;23.310;2022-08-21T06:29:49;53917.88;;;-144.00;65.18
12791;BME280;6459;42.678;23.310;2022-08-21T06:32:17;53905.94;;;-144.00;65.10
12791;BME280;6459;42.678;23.310;2022-08-21T06:34:47;53923.84;;;-144.00;65.51
12791;BME280;6459;42.678;23.310;2022-08-21T06:37:16;53951.75;;;-144.00;65.38
12791;BME280;6459;42.678;23.310;2022-08-21T06:39:44;53939.78;;;-144.00;65.94
12791;BME280;6459;42.678;23.310;2022-08-21T06:42:16;53949.75;;;-144.00;66.50
12791;BME280;6459;42.678;23.310;2022-08-21T06:44:45;53955.72;;;-144.00;66.45
12791;BME280;6459;42.678;23.310;2022-08-21T06:47:14;53957.72;;;-144.00;66.35
12791;BME280;6459;42.678;23.310;2022-08-21T06:49:42;53949.75;;;-144.00;66.37
12791;BME280;6459;42.678;23.310;2022-08-21T06:52:13;53937.81;;;-144.00;66.45
12791;BME280;6459;42.678;23.310;2022-08-21T06:54:41;53987.59;;;-144.00;66.74
12791;BME280;6459;42.678;23.310;2022-08-21T06:57:09;53949.75;;;-144.00;66.30
12791;BME280;6459;42.678;23.310;2022-08-21T06:59:37;53955.72;;;-144.00;66.08
12791;BME280;6459;42.678;23.310;2022-08-21T07:02:06;53957.72;;;-144.00;66.79
12791;BME280;6459;42.678;23.310;2022-08-21T07:04:35;53931.81;;;-144.00;67.21
12791;BME280;6459;42.678;23.310;2022-08-21T07:07:03;53949.75;;;-144.00;66.99
12791;BME280;6459;42.678;23.310;2022-08-21T07:09:33;53937.81;;;-144.00;65.98
12791;BME280;6459;42.678;23.310;2022-08-21T07:12:02;53929.84;;;-144.00;65.87
12791;BME280;6459;42.678;23.310;2022-08-21T07:14:30;53939.78;;;-144.00;65.70
12791;BME280;6459;42.678;23.310;2022-08-21T07:16:58;53913.91;;;-144.00;65.08
12791;BME280;6459;42.678;23.310;2022-08-21T07:19:27;53921.88;;;-144.00;64.66
12791;BME280;6459;42.678;23.310;2022-08-21T07:21:59;53909.91;;;-144.00;64.19
12791;BME280;6459;42.678;23.310;2022-08-21T07:24:30;53899.94;;;-144.00;64.02
12791;BME280;6459;42.678;23.310;2022-08-21T07:27:00;53907.91;;;-144.00;63.24
12791;BME280;6459;42.678;23.310;2022-08-21T07:29:33;53909.91;;;-144.00;63.54
12791;BME280;6459;42.678;23.310;2022-08-21T07:32:02;53899.94;;;-144.00;63.46
12791;BME280;6459;42.678;23.310;2022-08-21T07:34:30;53915.88;;;-144.00;63.80
12791;BME280;6459;42.678;23.310;2022-08-21T07:36:59;53913.91;;;-144.00;64.04
12791;BME280;6459;42.678;23.310;2022-08-21T07:39:32;53866.09;;;-144.00;63.47
12791;BME280;6459;42.678;23.310;2022-08-21T07:42:01;53893.97;;;-144.00;63.04
12791;BME280;6459;42.678;23.310;2022-08-21T07:44:34;53919.88;;;-144.00;63.00
12791;BME280;6459;42.678;23.310;2022-08-21T07:47:02;53945.78;;;-144.00;62.77
12791;BME280;6459;42.678;23.310;2022-08-21T07:49:30;53913.91;;;-144.00;62.39
12791;BME280;6459;42.678;23.310;2022-08-21T07:52:00;53899.94;;;-144.00;61.95
12791;BME280;6459;42.678;23.310;2022-08-21T07:54:28;53878.03;;;-144.00;61.20
12791;BME280;6459;42.678;23.310;2022-08-21T07:57:01;53880.03;;;-144.00;60.19
12791;BME280;6459;42.678;23.310;2022-08-21T07:59:29;53882.03;;;-144.00;59.68
12791;BME280;6459;42.678;23.310;2022-08-21T08:01:57;53874.06;;;-144.00;59.08
12791;BME280;6459;42.678;23.310;2022-08-21T08:04:25;53890.00;;;-144.00;58.89
12791;BME280;6459;42.678;23.310;2022-08-21T08:06:53;53872.06;;;-144.00;58.91
12791;BME280;6459;42.678;23.310;2022-08-21T08:09:21;53878.03;;;-144.00;59.04
12791;BME280;6459;42.678;23.310;2022-08-21T08:11:50;53897.97;;;-144.00;59.55
12791;BME280;6459;42.678;23.310;2022-08-21T08:14:21;53846.16;;;-144.00;59.37
12791;BME280;6459;42.678;23.310;2022-08-21T08:16:57;53874.06;;;-144.00;58.48
12791;BME280;6459;42.678;23.310;2022-08-21T08:19:25;53838.19;;;-144.00;58.27
12791;BME280;6459;42.678;23.310;2022-08-21T08:21:53;53864.09;;;-144.00;57.70
12791;BME280;6459;42.678;23.310;2022-08-21T08:24:21;53870.06;;;-144.00;57.21
12791;BME280;6459;42.678;23.310;2022-08-21T08:26:49;53844.16;;;-144.00;57.25
12791;BME280;6459;42.678;23.310;2022-08-21T08:29:21;53842.19;;;-144.00;57.27
12791;BME280;6459;42.678;23.310;2022-08-21T08:31:50;53834.22;;;-144.00;57.55
12791;BME280;6459;42.678;23.310;2022-08-21T08:34:18;53874.06;;;-144.00;57.24
12791;BME280;6459;42.678;23.310;2022-08-21T08:36:51;53850.16;;;-144.00;57.11
12791;BME280;6459;42.678;23.310;2022-08-21T08:39:20;53844.16;;;-144.00;56.42
12791;BME280;6459;42.678;23.310;2022-08-21T08:41:59;53850.16;;;-144.00;55.74
12791;BME280;6459;42.678;23.310;2022-08-21T08:45:03;53818.28;;;-144.00;55.61
12791;BME280;6459;42.678;23.310;2022-08-21T08:47:33;53824.25;;;-144.00;55.49
12791;BME280;6459;42.678;23.310;2022-08-21T08:50:06;53804.31;;;-144.00;54.65
12791;BME280;6459;42.678;23.310;2022-08-21T08:52:37;53796.34;;;-144.00;54.48
12791;BME280;6459;42.678;23.310;2022-08-21T08:55:13;53830.22;;;-144.00;54.73
12791;BME280;6459;42.678;23.310;2022-08-21T08:57:45;53812.28;;;-144.00;53.63
12791;BME280;6459;42.678;23.310;2022-08-21T09:00:19;53776.44;;;-144.00;54.08
12791;BME280;6459;42.678;23.310;2022-08-21T09:02:52;53826.25;;;-144.00;54.69
12791;BME280;6459;42.678;23.310;2022-08-21T09:05:22;53804.31;;;-144.00;54.63
12791;BME280;6459;42.678;23.310;2022-08-21T09:08:15;53808.31;;;-144.00;55.11
12791;BME280;6459;42.678;23.310;2022-08-21T09:10:56;53812.28;;;-144.00;54.60
12791;BME280;6459;42.678;23.310;2022-08-21T09:13:34;53824.25;;;-144.00;54.22
12791;BME280;6459;42.678;23.310;2022-08-21T09:16:13;53798.34;;;-144.00;53.80
12791;BME280;6459;42.678;23.310;2022-08-21T09:18:55;53794.38;;;-144.00;53.52
12791;BME280;6459;42.678;23.310;2022-08-21T09:21:35;53804.31;;;-144.00;53.23
12791;BME280;6459;42.678;23.310;2022-08-21T09:24:18;53820.25;;;-144.00;52.89
12791;BME280;6459;42.678;23.310;2022-08-21T09:26:54;53782.41;;;-144.00;52.69
12791;BME280;6459;42.678;23.310;2022-08-21T09:29:27;53794.38;;;-144.00;52.41
12791;BME280;6459;42.678;23.310;2022-08-21T09:31:59;53792.38;;;-144.00;52.26
12791;BME280;6459;42.678;23.310;2022-08-21T09:34:29;53836.19;;;-144.00;52.58
12791;BME280;6459;42.678;23.310;2022-08-21T09:36:58;53802.34;;;-144.00;53.14
12791;BME280;6459;42.678;23.310;2022-08-21T09:39:37;53834.22;;;-144.00;53.79
12791;BME280;6459;42.678;23.310;2022-08-21T09:42:10;53810.31;;;-144.00;54.26
12791;BME280;6459;42.678;23.310;2022-08-21T09:44:40;53832.22;;;-144.00;54.73
12791;BME280;6459;42.678;23.310;2022-08-21T09:47:12;53804.31;;;-144.00;53.92
12791;BME280;6459;42.678;23.310;2022-08-21T09:49:43;53798.34;;;-144.00;53.25
12791;BME280;6459;42.678;23.310;2022-08-21T09:52:17;53810.31;;;-144.00;53.02
12791;BME280;6459;42.678;23.310;2022-08-21T09:54:51;53806.31;;;-144.00;52.51
12791;BME280;6459;42.678;23.310;2022-08-21T09:57:24;53778.44;;;-144.00;52.14
12791;BME280;6459;42.678;23.310;2022-08-21T10:00:19;53786.41;;;-144.00;50.47
12791;BME280;6459;42.678;23.310;2022-08-21T10:02:48;53772.44;;;-144.00;50.51
12791;BME280;6459;42.678;23.310;2022-08-21T10:05:19;53778.44;;;-144.00;50.99
12791;BME280;6459;42.678;23.310;2022-08-21T10:07:49;53778.44;;;-144.00;50.52
12791;BME280;6459;42.678;23.310;2022-08-21T10:10:20;53764.47;;;-144.00;50.74
12791;BME280;6459;42.678;23.310;2022-08-21T10:12:53;53742.56;;;-144.00;50.82
12791;BME280;6459;42.678;23.310;2022-08-21T10:15:37;53778.44;;;-144.00;50.37
12791;BME280;6459;42.678;23.310;2022-08-21T10:18:13;53782.41;;;-144.00;50.70
12791;BME280;6459;42.678;23.310;2022-08-21T10:20:54;53818.28;;;-144.00;50.84
12791;BME280;6459;42.678;23.310;2022-08-21T10:23:35;53770.47;;;-144.00;50.42
12791;BME280;6459;42.678;23.310;2022-08-21T10:26:24;53738.59;;;-144.00;50.14
12791;BME280;6459;42.678;23.310;2022-08-21T10:29:00;53798.34;;;-144.00;50.74
12791;BME280;6459;42.678;23.310;2022-08-21T10:31:39;53760.50;;;-144.00;50.65
12791;BME280;6459;42.678;23.310;2022-08-21T10:34:28;53766.47;;;-144.00;50.35
12791;BME280;6459;42.678;23.310;2022-08-21T10:37:18;53758.50;;;-144.00;50.00
12791;BME280;6459;42.678;23.310;2022-08-21T10:39:56;53782.41;;;-144.00;50.37
12791;BME280;6459;42.678;23.310;2022-08-21T10:42:37;53802.34;;;-144.00;50.56
12791;BME280;6459;42.678;23.310;2022-08-21T10:45:19;53782.41;;;-144.00;51.18
12791;BME280;6459;42.678;23.310;2022-08-21T10:47:54;53796.34;;;-144.00;51.96
12791;BME280;6459;42.678;23.310;2022-08-21T10:50:30;53754.53;;;-144.00;51.42
12791;BME280;6459;42.678;23.310;2022-08-21T10:53:16;53798.34;;;-144.00;50.94
12791;BME280;6459;42.678;23.310;2022-08-21T10:55:52;53780.41;;;-144.00;51.83
12791;BME280;6459;42.678;23.310;2022-08-21T10:58:26;53780.41;;;-144.00;51.50
12791;BME280;6459;42.678;23.310;2022-08-21T11:01:00;53800.34;;;-144.00;50.93
12791;BME280;6459;42.678;23.310;2022-08-21T11:03:34;53772.44;;;-144.00;51.63
12791;BME280;6459;42.678;23.310;2022-08-21T11:06:11;53792.38;;;-144.00;51.73
12791;BME280;6459;42.678;23.310;2022-08-21T11:08:43;53756.50;;;-144.00;51.74
12791;BME280;6459;42.678;23.310;2022-08-21T11:11:16;53770.47;;;-144.00;51.45
12791;BME280;6459;42.678;23.310;2022-08-21T11:13:51;53766.47;;;-144.00;51.52
12791;BME280;6459;42.678;23.310;2022-08-21T11:16:25;53788.38;;;-144.00;50.86
12791;BME280;6459;42.678;23.310;2022-08-21T11:18:58;53778.44;;;-144.00;51.70
12791;BME280;6459;42.678;23.310;2022-08-21T11:21:36;53788.38;;;-144.00;50.81
12791;BME280;6459;42.678;23.310;2022-08-21T11:24:29;53756.50;;;-144.00;50.65
12791;BME280;6459;42.678;23.310;2022-08-21T11:27:01;53782.41;;;-144.00;50.98
12791;BME280;6459;42.678;23.310;2022-08-21T11:29:35;53788.38;;;-144.00;51.12
12791;BME280;6459;42.678;23.310;2022-08-21T11:32:22;53758.50;;;-144.00;50.08
12791;BME280;6459;42.678;23.310;2022-08-21T11:35:00;53754.53;;;-144.00;49.56
12791;BME280;6459;42.678;23.310;2022-08-21T11:37:45;53768.47;;;-144.00;49.33
12791;BME280;6459;42.678;23.310;2022-08-21T11:40:35;53784.41;;;-144.00;49.60
12791;BME280;6459;42.678;23.310;2022-08-21T11:43:12;53742.56;;;-144.00;49.63
12791;BME280;6459;42.678;23.310;2022-08-21T11:45:48;53744.56;;;-144.00;47.92
12791;BME280;6459;42.678;23.310;2022-08-21T11:48:29;53758.50;;;-144.00;48.47
12791;BME280;6459;42.678;23.310;2022-08-21T11:51:06;53766.47;;;-144.00;48.80
12791;BME280;6459;42.678;23.310;2022-08-21T11:53:49;53748.53;;;-144.00;47.96
12791;BME280;6459;42.678;23.310;2022-08-21T11:56:24;53752.53;;;-144.00;47.99
12791;BME280;6459;42.678;23.310;2022-08-21T11:59:06;53760.50;;;-144.00;47.82
12791;BME280;6459;42.678;23.310;2022-08-21T12:01:55;53798.34;;;-144.00;47.72
12791;BME280;6459;42.678;23.310;2022-08-21T12:04:26;53770.47;;;-144.00;48.17
12791;BME280;6459;42.678;23.310;2022-08-21T12:07:11;53790.38;;;-144.00;48.72
12791;BME280;6459;42.678;23.310;2022-08-21T12:09:52;53768.47;;;-144.00;48.92
12791;BME280;6459;42.678;23.310;2022-08-21T12:12:26;53760.50;;;-144.00;49.08
12791;BME280;6459;42.678;23.310;2022-08-21T12:15:25;53754.53;;;-144.00;48.85
12791;BME280;6459;42.678;23.310;2022-08-21T12:17:59;53750.53;;;-144.00;48.28
12791;BME280;6459;42.678;23.310;2022-08-21T12:20:40;53798.34;;;-144.00;49.04
12791;BME280;6459;42.678;23.310;2022-08-21T12:23:26;53750.53;;;-144.00;48.91
12791;BME280;6459;42.678;23.310;2022-08-21T12:26:18;53704.72;;;-144.00;48.69
12791;BME280;6459;42.678;23.310;2022-08-21T12:28:51;53750.53;;;-144.00;48.18
12791;BME280;6459;42.678;23.310;2022-08-21T12:31:30;53760.50;;;-144.00;48.18
12791;BME280;6459;42.678;23.310;2022-08-21T12:34:01;53742.56;;;-144.00;47.97
12791;BME280;6459;42.678;23.310;2022-08-21T12:36:40;53758.50;;;-144.00;47.72
12791;BME280;6459;42.678;23.310;2022-08-21T12:39:15;53728.63;;;-144.00;47.77
12791;BME280;6459;42.678;23.310;2022-08-21T12:41:49;53704.72;;;-144.00;47.47
12791;BME280;6459;42.678;23.310;2022-08-21T12:44:24;53750.53;;;-144.00;47.26
12791;BME280;6459;42.678;23.310;2022-08-21T12:46:57;53752.53;;;-144.00;47.16
12791;BME280;6459;42.678;23.310;2022-08-21T12:49:30;53742.56;;;-144.00;47.01
12791;BME280;6459;42.678;23.310;2022-08-21T12:52:03;53746.56;;;-144.00;46.78
12791;BME280;6459;42.678;23.310;2022-08-21T12:54:39;53732.63;;;-144.00;46.66
12791;BME280;6459;42.678;23.310;2022-08-21T12:57:17;53748.53;;;-144.00;46.86
12791;BME280;6459;42.678;23.310;2022-08-21T12:59:53;53772.44;;;-144.00;47.03
12791;BME280;6459;42.678;23.310;2022-08-21T13:02:25;53796.34;;;-144.00;47.35
12791;BME280;6459;42.678;23.310;2022-08-21T13:05:30;53786.41;;;-144.00;48.48
12791;BME280;6459;42.678;23.310;2022-08-21T13:07:59;53806.31;;;-144.00;49.00